Startpagina
METAR-TAF:

METAR-TAF

Vliegvelden :

Gibraltar, Gibraltar

Gibraltar Airport

breedte: 36-09N, lengte: 005-21W, hoogte: 5 m

Actueel weer

Dit bericht is 1 uur en het 16 minuten geleden gemaakt, om 22:50 UTC
Wind 10 kt uit het zuidzuidwesten
Temperatuur 23°C
Vochtigheid 78%
Druk

METAR: LXGB 272250Z AUTO 21010KT //// // NCD 23/19 Q////

Tijdstip: 02:06 (00:06 UTC)

Verwachting

Dit bericht is 7 uur en het 49 minuten geleden gemaakt, om 16:17 UTC
Verwachting geldig van 27 om 18 UTC tot 27 om 22 UTC
Wind 14 kt uit het westen
Zicht 10 km of meer
Weinig wolken op 3500 ft
Tijdelijke
van 27 om 18 UTC tot 27 om 22 UTC
Wind 19 kt uit het westzuidwesten met uitschieters tot 29 kt

TAF: LXGB 271617Z 2718/2722 27014KT 9999 FEW035 TEMPO 2718/2722 25019G29KT 520002

Waarnemingen en weersverwachtingen van meer dan 4000 vliegvelden (METAR en TAF).

De beschikbare stations zijn de gele en rode punten op de kaart.

Ga met uw muis naar het station om de naam te zien.

Klik dan om waarnemingen en weersverwachtingen te zien.

kaart wijzigen: klik op de groene knoppen met een zwart kruis om in te zoomen, op de groene knop met een streepje om uit te zoomen of op de groene pijlen voor aangrenzende kaarten.


METAR-TAF: